sensor_id;sensor_type;location;lat;lon;timestamp;temperature;humidity
324;DHT22;149;51.094;17.002;2022-09-14T00:01:29;16.80;99.90
324;DHT22;149;51.094;17.002;2022-09-14T00:03:59;16.70;99.90
324;DHT22;149;51.094;17.002;2022-09-14T00:06:27;16.70;99.90
324;DHT22;149;51.094;17.002;2022-09-14T00:08:55;16.50;99.90
324;DHT22;149;51.094;17.002;2022-09-14T00:11:25;16.50;99.90
324;DHT22;149;51.094;17.002;2022-09-14T00:13:53;16.50;99.90
324;DHT22;149;51.094;17.002;2022-09-14T00:16:25;16.50;99.90
324;DHT22;149;51.094;17.002;2022-09-14T00:18:56;16.40;99.90
324;DHT22;149;51.094;17.002;2022-09-14T00:21:23;16.40;99.90
324;DHT22;149;51.094;17.002;2022-09-14T00:23:51;16.40;99.90
324;DHT22;149;51.094;17.002;2022-09-14T00:26:20;16.30;99.90
324;DHT22;149;51.094;17.002;2022-09-14T00:28:50;16.40;99.90
324;DHT22;149;51.094;17.002;2022-09-14T00:31:21;16.40;99.90
324;DHT22;149;51.094;17.002;2022-09-14T00:33:49;16.50;99.90
324;DHT22;149;51.094;17.002;2022-09-14T00:36:20;16.40;99.90
324;DHT22;149;51.094;17.002;2022-09-14T00:38:48;16.40;99.90
324;DHT22;149;51.094;17.002;2022-09-14T00:41:20;16.20;99.90
324;DHT22;149;51.094;17.002;2022-09-14T00:43:58;16.40;99.90
324;DHT22;149;51.094;17.002;2022-09-14T00:46:28;16.30;99.90
324;DHT22;149;51.094;17.002;2022-09-14T00:48:59;16.30;99.90
324;DHT22;149;51.094;17.002;2022-09-14T00:51:29;16.40;99.90
324;DHT22;149;51.094;17.002;2022-09-14T00:53:57;16.50;99.90
324;DHT22;149;51.094;17.002;2022-09-14T00:56:24;16.50;99.90
324;DHT22;149;51.094;17.002;2022-09-14T00:58:52;16.70;99.90
324;DHT22;149;51.094;17.002;2022-09-14T01:01:20;16.80;99.90
324;DHT22;149;51.094;17.002;2022-09-14T01:03:47;16.90;99.90
324;DHT22;149;51.094;17.002;2022-09-14T01:06:39;16.70;99.90
324;DHT22;149;51.094;17.002;2022-09-14T01:12:20;16.80;99.90
324;DHT22;149;51.094;17.002;2022-09-14T01:17:57;16.90;99.90
324;DHT22;149;51.094;17.002;2022-09-14T01:21:18;17.00;99.90
324;DHT22;149;51.094;17.002;2022-09-14T01:28:42;16.90;99.90
324;DHT22;149;51.094;17.002;2022-09-14T01:31:20;17.00;99.90
324;DHT22;149;51.094;17.002;2022-09-14T01:33:56;17.10;99.90
324;DHT22;149;51.094;17.002;2022-09-14T01:36:28;17.10;99.90
324;DHT22;149;51.094;17.002;2022-09-14T01:38:57;17.10;99.90
324;DHT22;149;51.094;17.002;2022-09-14T01:41:26;17.20;99.90
324;DHT22;149;51.094;17.002;2022-09-14T01:44:08;17.10;99.90
324;DHT22;149;51.094;17.002;2022-09-14T01:46:50;16.80;99.90
324;DHT22;149;51.094;17.002;2022-09-14T01:49:49;16.80;99.90
324;DHT22;149;51.094;17.002;2022-09-14T01:52:25;16.80;99.90
324;DHT22;149;51.094;17.002;2022-09-14T01:55:00;17.00;99.90
324;DHT22;149;51.094;17.002;2022-09-14T01:57:34;16.90;99.90
324;DHT22;149;51.094;17.002;2022-09-14T02:00:08;17.00;99.90
324;DHT22;149;51.094;17.002;2022-09-14T02:02:39;17.00;99.90
324;DHT22;149;51.094;17.002;2022-09-14T02:05:27;17.00;99.90
324;DHT22;149;51.094;17.002;2022-09-14T02:07:55;17.00;99.90
324;DHT22;149;51.094;17.002;2022-09-14T02:10:23;17.10;99.90
324;DHT22;149;51.094;17.002;2022-09-14T02:12:53;17.00;99.90
324;DHT22;149;51.094;17.002;2022-09-14T02:15:21;16.90;99.90
324;DHT22;149;51.094;17.002;2022-09-14T02:17:48;17.00;99.90
324;DHT22;149;51.094;17.002;2022-09-14T02:20:47;17.00;99.90
324;DHT22;149;51.094;17.002;2022-09-14T02:23:16;17.00;99.90
324;DHT22;149;51.094;17.002;2022-09-14T02:25:45;17.10;99.90
324;DHT22;149;51.094;17.002;2022-09-14T02:28:11;17.10;99.90
324;DHT22;149;51.094;17.002;2022-09-14T02:30:54;17.30;99.90
324;DHT22;149;51.094;17.002;2022-09-14T02:36:26;17.10;99.90
324;DHT22;149;51.094;17.002;2022-09-14T02:39:03;17.00;99.90
324;DHT22;149;51.094;17.002;2022-09-14T02:41:50;17.00;99.90
324;DHT22;149;51.094;17.002;2022-09-14T02:44:36;16.90;99.90
324;DHT22;149;51.094;17.002;2022-09-14T02:47:18;17.10;99.90
324;DHT22;149;51.094;17.002;2022-09-14T02:52:44;17.30;99.90
324;DHT22;149;51.094;17.002;2022-09-14T02:55:17;17.30;99.90
324;DHT22;149;51.094;17.002;2022-09-14T02:58:09;17.40;99.90
324;DHT22;149;51.094;17.002;2022-09-14T03:00:42;17.30;99.90
324;DHT22;149;51.094;17.002;2022-09-14T03:03:11;17.40;99.90
324;DHT22;149;51.094;17.002;2022-09-14T03:05:39;17.40;99.90
324;DHT22;149;51.094;17.002;2022-09-14T03:08:07;17.30;99.90
324;DHT22;149;51.094;17.002;2022-09-14T03:10:36;17.40;99.90
324;DHT22;149;51.094;17.002;2022-09-14T03:13:04;17.30;99.90
324;DHT22;149;51.094;17.002;2022-09-14T03:15:30;17.30;99.90
324;DHT22;149;51.094;17.002;2022-09-14T03:17:58;17.10;99.90
324;DHT22;149;51.094;17.002;2022-09-14T03:20:28;16.90;99.90
324;DHT22;149;51.094;17.002;2022-09-14T03:22:57;16.80;99.90
324;DHT22;149;51.094;17.002;2022-09-14T03:25:24;16.80;99.90
324;DHT22;149;51.094;17.002;2022-09-14T03:27:54;16.80;99.90
324;DHT22;149;51.094;17.002;2022-09-14T03:30:25;16.80;99.90
324;DHT22;149;51.094;17.002;2022-09-14T03:32:52;16.80;99.90
324;DHT22;149;51.094;17.002;2022-09-14T03:35:19;16.60;99.90
324;DHT22;149;51.094;17.002;2022-09-14T03:37:46;16.70;99.90
324;DHT22;149;51.094;17.002;2022-09-14T03:40:14;16.60;99.90
324;DHT22;149;51.094;17.002;2022-09-14T03:42:49;16.50;99.90
324;DHT22;149;51.094;17.002;2022-09-14T03:45:18;16.50;99.90
324;DHT22;149;51.094;17.002;2022-09-14T03:47:46;16.50;99.90
324;DHT22;149;51.094;17.002;2022-09-14T03:50:14;16.40;99.90
324;DHT22;149;51.094;17.002;2022-09-14T03:52:41;16.40;99.90
324;DHT22;149;51.094;17.002;2022-09-14T03:55:08;16.40;99.90
324;DHT22;149;51.094;17.002;2022-09-14T03:57:37;16.40;99.90
324;DHT22;149;51.094;17.002;2022-09-14T04:00:06;16.40;99.90
324;DHT22;149;51.094;17.002;2022-09-14T04:02:33;16.40;99.90
324;DHT22;149;51.094;17.002;2022-09-14T04:05:00;16.40;99.90
324;DHT22;149;51.094;17.002;2022-09-14T04:07:28;16.30;99.90
324;DHT22;149;51.094;17.002;2022-09-14T04:09:54;16.30;99.90
324;DHT22;149;51.094;17.002;2022-09-14T04:12:22;16.30;99.90
324;DHT22;149;51.094;17.002;2022-09-14T04:14:48;16.10;99.90
324;DHT22;149;51.094;17.002;2022-09-14T04:17:16;16.20;99.90
324;DHT22;149;51.094;17.002;2022-09-14T04:19:43;16.30;99.90
324;DHT22;149;51.094;17.002;2022-09-14T04:22:10;16.30;99.90
324;DHT22;149;51.094;17.002;2022-09-14T04:24:37;16.30;99.90
324;DHT22;149;51.094;17.002;2022-09-14T04:27:06;16.30;99.90
324;DHT22;149;51.094;17.002;2022-09-14T04:29:33;16.30;99.90
324;DHT22;149;51.094;17.002;2022-09-14T04:32:00;16.30;99.90
324;DHT22;149;51.094;17.002;2022-09-14T04:34:27;16.30;99.90
324;DHT22;149;51.094;17.002;2022-09-14T04:36:54;16.30;99.90
324;DHT22;149;51.094;17.002;2022-09-14T04:39:21;16.30;99.90
324;DHT22;149;51.094;17.002;2022-09-14T04:41:48;16.30;99.90
324;DHT22;149;51.094;17.002;2022-09-14T04:44:15;16.30;99.90
324;DHT22;149;51.094;17.002;2022-09-14T04:46:45;16.30;99.90
324;DHT22;149;51.094;17.002;2022-09-14T04:49:14;16.30;99.90
324;DHT22;149;51.094;17.002;2022-09-14T04:51:41;16.30;99.90
324;DHT22;149;51.094;17.002;2022-09-14T04:54:11;16.20;99.90
324;DHT22;149;51.094;17.002;2022-09-14T04:56:38;16.20;99.90
324;DHT22;149;51.094;17.002;2022-09-14T04:59:06;16.20;99.90
324;DHT22;149;51.094;17.002;2022-09-14T05:01:44;16.10;99.90
324;DHT22;149;51.094;17.002;2022-09-14T05:04:11;16.20;99.90
324;DHT22;149;51.094;17.002;2022-09-14T05:06:40;16.40;99.90
324;DHT22;149;51.094;17.002;2022-09-14T05:09:13;16.40;99.90
324;DHT22;149;51.094;17.002;2022-09-14T05:11:41;16.40;99.90
324;DHT22;149;51.094;17.002;2022-09-14T05:14:10;16.50;99.90
324;DHT22;149;51.094;17.002;2022-09-14T05:16:39;16.70;99.90
324;DHT22;149;51.094;17.002;2022-09-14T05:19:09;16.70;99.90
324;DHT22;149;51.094;17.002;2022-09-14T05:21:37;16.90;99.90
324;DHT22;149;51.094;17.002;2022-09-14T05:24:11;17.00;99.90
324;DHT22;149;51.094;17.002;2022-09-14T05:26:39;17.00;99.90
324;DHT22;149;51.094;17.002;2022-09-14T05:29:06;17.10;99.90
324;DHT22;149;51.094;17.002;2022-09-14T05:31:33;17.20;99.90
324;DHT22;149;51.094;17.002;2022-09-14T05:34:00;17.00;99.90
324;DHT22;149;51.094;17.002;2022-09-14T05:36:27;17.00;99.90
324;DHT22;149;51.094;17.002;2022-09-14T05:38:54;17.00;99.90
324;DHT22;149;51.094;17.002;2022-09-14T05:41:24;17.10;99.90
324;DHT22;149;51.094;17.002;2022-09-14T05:43:51;17.00;99.90
324;DHT22;149;51.094;17.002;2022-09-14T05:46:18;16.80;99.90
324;DHT22;149;51.094;17.002;2022-09-14T05:48:48;17.00;99.90
324;DHT22;149;51.094;17.002;2022-09-14T05:51:22;17.00;99.90
324;DHT22;149;51.094;17.002;2022-09-14T05:53:51;16.90;99.90
324;DHT22;149;51.094;17.002;2022-09-14T05:56:19;16.80;99.90
324;DHT22;149;51.094;17.002;2022-09-14T05:58:47;16.90;99.90
324;DHT22;149;51.094;17.002;2022-09-14T06:01:22;17.00;99.90
324;DHT22;149;51.094;17.002;2022-09-14T06:03:53;17.10;99.90
324;DHT22;149;51.094;17.002;2022-09-14T06:06:20;17.10;99.90
324;DHT22;149;51.094;17.002;2022-09-14T06:08:49;17.20;99.90
324;DHT22;149;51.094;17.002;2022-09-14T06:11:20;17.20;99.90
324;DHT22;149;51.094;17.002;2022-09-14T06:13:49;17.30;99.90
324;DHT22;149;51.094;17.002;2022-09-14T06:16:18;17.30;99.90
324;DHT22;149;51.094;17.002;2022-09-14T06:18:47;17.20;99.90
324;DHT22;149;51.094;17.002;2022-09-14T06:21:16;17.20;99.90
324;DHT22;149;51.094;17.002;2022-09-14T06:23:46;17.30;99.90
324;DHT22;149;51.094;17.002;2022-09-14T06:26:14;17.30;99.90
324;DHT22;149;51.094;17.002;2022-09-14T06:28:41;17.60;99.90
324;DHT22;149;51.094;17.002;2022-09-14T06:31:11;17.70;99.90
324;DHT22;149;51.094;17.002;2022-09-14T06:33:43;18.00;99.90
324;DHT22;149;51.094;17.002;2022-09-14T06:36:13;18.00;99.90
324;DHT22;149;51.094;17.002;2022-09-14T06:38:41;18.00;99.90
324;DHT22;149;51.094;17.002;2022-09-14T06:41:11;18.30;99.90
324;DHT22;149;51.094;17.002;2022-09-14T06:43:40;18.80;99.90
324;DHT22;149;51.094;17.002;2022-09-14T06:46:17;19.00;99.90
324;DHT22;149;51.094;17.002;2022-09-14T06:48:51;19.10;99.90
324;DHT22;149;51.094;17.002;2022-09-14T06:51:25;19.20;99.90
324;DHT22;149;51.094;17.002;2022-09-14T06:53:55;19.10;99.90
324;DHT22;149;51.094;17.002;2022-09-14T06:56:30;19.30;99.90
324;DHT22;149;51.094;17.002;2022-09-14T06:59:00;19.10;99.90
324;DHT22;149;51.094;17.002;2022-09-14T07:01:27;19.10;99.90
324;DHT22;149;51.094;17.002;2022-09-14T07:03:55;19.10;99.90
324;DHT22;149;51.094;17.002;2022-09-14T07:06:25;19.00;99.90
324;DHT22;149;51.094;17.002;2022-09-14T07:08:52;18.90;99.90
324;DHT22;149;51.094;17.002;2022-09-14T07:11:22;19.00;99.90
324;DHT22;149;51.094;17.002;2022-09-14T07:13:49;19.10;99.90
324;DHT22;149;51.094;17.002;2022-09-14T07:16:17;19.20;99.90
324;DHT22;149;51.094;17.002;2022-09-14T07:18:44;19.40;99.90
324;DHT22;149;51.094;17.002;2022-09-14T07:21:16;19.50;99.90
324;DHT22;149;51.094;17.002;2022-09-14T07:23:45;19.50;99.90
324;DHT22;149;51.094;17.002;2022-09-14T07:26:21;19.50;99.90
324;DHT22;149;51.094;17.002;2022-09-14T07:28:57;19.60;99.90
324;DHT22;149;51.094;17.002;2022-09-14T07:31:27;19.60;99.90
324;DHT22;149;51.094;17.002;2022-09-14T07:33:56;19.70;99.90
324;DHT22;149;51.094;17.002;2022-09-14T07:36:24;19.90;99.90
324;DHT22;149;51.094;17.002;2022-09-14T07:38:54;19.90;99.90
324;DHT22;149;51.094;17.002;2022-09-14T07:41:23;20.00;99.90
324;DHT22;149;51.094;17.002;2022-09-14T07:43:52;20.20;99.90
324;DHT22;149;51.094;17.002;2022-09-14T07:46:20;20.40;99.90
324;DHT22;149;51.094;17.002;2022-09-14T07:48:49;20.50;99.90
324;DHT22;149;51.094;17.002;2022-09-14T07:51:19;20.60;99.90
324;DHT22;149;51.094;17.002;2022-09-14T07:53:47;20.40;99.90
324;DHT22;149;51.094;17.002;2022-09-14T07:56:14;20.50;99.90
324;DHT22;149;51.094;17.002;2022-09-14T07:58:43;20.40;99.90
324;DHT22;149;51.094;17.002;2022-09-14T08:01:14;20.60;99.90
324;DHT22;149;51.094;17.002;2022-09-14T08:03:44;20.90;99.90
324;DHT22;149;51.094;17.002;2022-09-14T08:06:17;21.10;99.90
324;DHT22;149;51.094;17.002;2022-09-14T08:08:46;21.00;99.90
324;DHT22;149;51.094;17.002;2022-09-14T08:11:18;21.10;99.90
324;DHT22;149;51.094;17.002;2022-09-14T08:13:49;21.20;99.90
324;DHT22;149;51.094;17.002;2022-09-14T08:16:17;21.30;99.90
324;DHT22;149;51.094;17.002;2022-09-14T08:18:46;21.20;99.90
324;DHT22;149;51.094;17.002;2022-09-14T08:21:15;21.20;99.90
324;DHT22;149;51.094;17.002;2022-09-14T08:23:43;21.30;99.90
324;DHT22;149;51.094;17.002;2022-09-14T08:26:16;21.50;99.90
324;DHT22;149;51.094;17.002;2022-09-14T08:28:44;21.60;99.90
324;DHT22;149;51.094;17.002;2022-09-14T08:31:17;21.30;99.90
324;DHT22;149;51.094;17.002;2022-09-14T08:33:52;21.40;99.90
324;DHT22;149;51.094;17.002;2022-09-14T08:36:20;21.30;99.90
324;DHT22;149;51.094;17.002;2022-09-14T08:38:48;21.10;99.90
324;DHT22;149;51.094;17.002;2022-09-14T08:41:23;21.30;99.90
324;DHT22;149;51.094;17.002;2022-09-14T08:43:52;21.30;99.90
324;DHT22;149;51.094;17.002;2022-09-14T08:46:34;21.40;99.90
324;DHT22;149;51.094;17.002;2022-09-14T08:49:11;21.50;99.90
324;DHT22;149;51.094;17.002;2022-09-14T08:51:40;21.50;99.90
324;DHT22;149;51.094;17.002;2022-09-14T08:54:09;21.70;99.90
324;DHT22;149;51.094;17.002;2022-09-14T08:56:40;21.80;99.90
324;DHT22;149;51.094;17.002;2022-09-14T08:59:32;21.90;99.90
324;DHT22;149;51.094;17.002;2022-09-14T09:02:14;22.10;99.90
324;DHT22;149;51.094;17.002;2022-09-14T09:05:22;22.00;99.90
324;DHT22;149;51.094;17.002;2022-09-14T09:08:07;22.30;99.90
324;DHT22;149;51.094;17.002;2022-09-14T09:10:39;22.20;99.90
324;DHT22;149;51.094;17.002;2022-09-14T09:13:12;22.30;99.90
324;DHT22;149;51.094;17.002;2022-09-14T09:15:52;22.50;99.90
324;DHT22;149;51.094;17.002;2022-09-14T09:21:13;22.00;99.90
324;DHT22;149;51.094;17.002;2022-09-14T09:23:41;21.50;99.90
324;DHT22;149;51.094;17.002;2022-09-14T09:28:50;22.30;99.90
324;DHT22;149;51.094;17.002;2022-09-14T09:31:20;22.70;99.90
324;DHT22;149;51.094;17.002;2022-09-14T09:33:48;23.00;99.90
324;DHT22;149;51.094;17.002;2022-09-14T09:36:16;23.60;99.90
324;DHT22;149;51.094;17.002;2022-09-14T09:38:44;24.10;99.90
324;DHT22;149;51.094;17.002;2022-09-14T09:41:17;24.20;99.90
324;DHT22;149;51.094;17.002;2022-09-14T09:44:02;23.90;99.90
324;DHT22;149;51.094;17.002;2022-09-14T09:46:33;24.20;99.90
324;DHT22;149;51.094;17.002;2022-09-14T09:49:03;24.20;99.90
324;DHT22;149;51.094;17.002;2022-09-14T09:51:40;24.10;99.90
324;DHT22;149;51.094;17.002;2022-09-14T09:56:56;23.90;99.90
324;DHT22;149;51.094;17.002;2022-09-14T09:59:38;23.80;99.90
324;DHT22;149;51.094;17.002;2022-09-14T10:02:29;23.90;99.90
324;DHT22;149;51.094;17.002;2022-09-14T10:07:47;24.00;99.90
324;DHT22;149;51.094;17.002;2022-09-14T10:10:18;23.70;99.90
324;DHT22;149;51.094;17.002;2022-09-14T10:12:48;23.10;99.90
324;DHT22;149;51.094;17.002;2022-09-14T10:15:24;22.30;99.90
324;DHT22;149;51.094;17.002;2022-09-14T10:17:55;22.20;99.90
324;DHT22;149;51.094;17.002;2022-09-14T10:20:26;22.50;99.90
324;DHT22;149;51.094;17.002;2022-09-14T10:22:53;22.70;99.90
324;DHT22;149;51.094;17.002;2022-09-14T10:25:23;23.30;99.90
324;DHT22;149;51.094;17.002;2022-09-14T10:30:26;23.70;99.90
324;DHT22;149;51.094;17.002;2022-09-14T10:33:03;23.30;99.90
324;DHT22;149;51.094;17.002;2022-09-14T10:35:42;23.40;99.90
324;DHT22;149;51.094;17.002;2022-09-14T10:46:42;23.00;99.90
324;DHT22;149;51.094;17.002;2022-09-14T10:49:51;22.90;99.90
324;DHT22;149;51.094;17.002;2022-09-14T10:52:32;22.90;99.90
324;DHT22;149;51.094;17.002;2022-09-14T10:55:40;23.00;99.90
324;DHT22;149;51.094;17.002;2022-09-14T10:58:52;23.20;99.90
324;DHT22;149;51.094;17.002;2022-09-14T11:01:27;23.60;99.90
324;DHT22;149;51.094;17.002;2022-09-14T11:07:01;23.30;99.90
324;DHT22;149;51.094;17.002;2022-09-14T11:09:41;23.60;99.90
324;DHT22;149;51.094;17.002;2022-09-14T11:12:15;24.20;99.90
324;DHT22;149;51.094;17.002;2022-09-14T11:23:17;24.30;99.90
324;DHT22;149;51.094;17.002;2022-09-14T11:31:11;24.40;99.90
324;DHT22;149;51.094;17.002;2022-09-14T11:33:46;24.00;99.90
324;DHT22;149;51.094;17.002;2022-09-14T11:39:14;24.10;99.90
324;DHT22;149;51.094;17.002;2022-09-14T11:41:57;24.00;99.90
324;DHT22;149;51.094;17.002;2022-09-14T11:44:31;23.70;99.90
324;DHT22;149;51.094;17.002;2022-09-14T11:47:06;23.60;99.90
324;DHT22;149;51.094;17.002;2022-09-14T11:52:23;23.60;99.90
324;DHT22;149;51.094;17.002;2022-09-14T11:54:51;23.80;99.90
324;DHT22;149;51.094;17.002;2022-09-14T11:57:26;24.10;99.90
324;DHT22;149;51.094;17.002;2022-09-14T12:00:00;24.00;99.90
324;DHT22;149;51.094;17.002;2022-09-14T12:10:17;24.40;99.90
324;DHT22;149;51.094;17.002;2022-09-14T12:36:08;25.00;99.90
324;DHT22;149;51.094;17.002;2022-09-14T12:39:21;25.10;99.90
324;DHT22;149;51.094;17.002;2022-09-14T12:44:39;24.40;99.90
324;DHT22;149;51.094;17.002;2022-09-14T12:49:55;24.40;99.90
324;DHT22;149;51.094;17.002;2022-09-14T12:52:42;24.60;99.90
324;DHT22;149;51.094;17.002;2022-09-14T12:55:41;24.30;99.90
324;DHT22;149;51.094;17.002;2022-09-14T13:01:27;23.70;99.90
324;DHT22;149;51.094;17.002;2022-09-14T13:03:56;23.40;99.90
324;DHT22;149;51.094;17.002;2022-09-14T13:06:32;23.30;99.90
324;DHT22;149;51.094;17.002;2022-09-14T13:09:00;23.20;99.90
324;DHT22;149;51.094;17.002;2022-09-14T13:11:34;22.90;99.90
324;DHT22;149;51.094;17.002;2022-09-14T13:14:02;23.00;99.90
324;DHT22;149;51.094;17.002;2022-09-14T13:16:37;22.80;99.90
324;DHT22;149;51.094;17.002;2022-09-14T13:21:48;23.30;99.90
324;DHT22;149;51.094;17.002;2022-09-14T13:24:24;23.60;99.90
324;DHT22;149;51.094;17.002;2022-09-14T13:26:53;23.60;99.90
324;DHT22;149;51.094;17.002;2022-09-14T13:29:22;23.80;99.90
324;DHT22;149;51.094;17.002;2022-09-14T13:31:50;24.00;99.90
324;DHT22;149;51.094;17.002;2022-09-14T13:34:37;23.90;99.90
324;DHT22;149;51.094;17.002;2022-09-14T13:37:06;23.90;99.90
324;DHT22;149;51.094;17.002;2022-09-14T13:39:37;23.40;99.90
324;DHT22;149;51.094;17.002;2022-09-14T13:42:06;23.30;99.90
324;DHT22;149;51.094;17.002;2022-09-14T13:44:36;23.00;99.90
324;DHT22;149;51.094;17.002;2022-09-14T13:47:10;22.90;99.90
324;DHT22;149;51.094;17.002;2022-09-14T13:49:39;23.10;99.90
324;DHT22;149;51.094;17.002;2022-09-14T13:54:44;23.30;99.90
324;DHT22;149;51.094;17.002;2022-09-14T13:57:17;23.40;99.90
324;DHT22;149;51.094;17.002;2022-09-14T14:02:44;23.80;99.90
324;DHT22;149;51.094;17.002;2022-09-14T14:05:21;23.90;99.90
324;DHT22;149;51.094;17.002;2022-09-14T14:07:49;24.10;99.90
324;DHT22;149;51.094;17.002;2022-09-14T14:10:22;23.70;99.90
324;DHT22;149;51.094;17.002;2022-09-14T14:12:50;23.30;99.90
324;DHT22;149;51.094;17.002;2022-09-14T14:17:44;23.40;99.90
324;DHT22;149;51.094;17.002;2022-09-14T14:23:18;23.90;99.90
324;DHT22;149;51.094;17.002;2022-09-14T14:25:50;24.00;99.90
324;DHT22;149;51.094;17.002;2022-09-14T14:28:29;23.80;99.90
324;DHT22;149;51.094;17.002;2022-09-14T14:30:58;23.70;99.90
324;DHT22;149;51.094;17.002;2022-09-14T14:33:28;23.50;99.90
324;DHT22;149;51.094;17.002;2022-09-14T14:35:55;23.60;99.90
324;DHT22;149;51.094;17.002;2022-09-14T14:38:23;23.50;99.90
324;DHT22;149;51.094;17.002;2022-09-14T14:40:52;23.30;99.90
324;DHT22;149;51.094;17.002;2022-09-14T14:43:23;23.10;99.90
324;DHT22;149;51.094;17.002;2022-09-14T14:45:56;23.00;99.90
324;DHT22;149;51.094;17.002;2022-09-14T14:48:23;22.90;99.90
324;DHT22;149;51.094;17.002;2022-09-14T14:50:50;23.00;99.90
324;DHT22;149;51.094;17.002;2022-09-14T14:53:18;23.00;99.90
324;DHT22;149;51.094;17.002;2022-09-14T14:55:45;22.80;99.90
324;DHT22;149;51.094;17.002;2022-09-14T14:58:18;22.70;99.90
324;DHT22;149;51.094;17.002;2022-09-14T15:00:45;22.60;99.90
324;DHT22;149;51.094;17.002;2022-09-14T15:03:13;22.80;99.90
324;DHT22;149;51.094;17.002;2022-09-14T15:05:46;22.90;99.90
324;DHT22;149;51.094;17.002;2022-09-14T15:08:15;22.80;99.90
324;DHT22;149;51.094;17.002;2022-09-14T15:10:42;22.50;99.90
324;DHT22;149;51.094;17.002;2022-09-14T15:13:10;22.60;99.90
324;DHT22;149;51.094;17.002;2022-09-14T15:15:39;22.70;99.90
324;DHT22;149;51.094;17.002;2022-09-14T15:18:10;22.50;99.90
324;DHT22;149;51.094;17.002;2022-09-14T15:20:37;22.50;99.90
324;DHT22;149;51.094;17.002;2022-09-14T15:23:04;22.70;99.90
324;DHT22;149;51.094;17.002;2022-09-14T15:25:31;22.80;99.90
324;DHT22;149;51.094;17.002;2022-09-14T15:27:58;22.70;99.90
324;DHT22;149;51.094;17.002;2022-09-14T15:30:25;22.60;99.90
324;DHT22;149;51.094;17.002;2022-09-14T15:32:52;22.60;99.90
324;DHT22;149;51.094;17.002;2022-09-14T15:35:19;22.50;99.90
324;DHT22;149;51.094;17.002;2022-09-14T15:37:46;22.50;99.90
324;DHT22;149;51.094;17.002;2022-09-14T15:40:14;22.40;99.90
324;DHT22;149;51.094;17.002;2022-09-14T15:42:41;22.40;99.90
324;DHT22;149;51.094;17.002;2022-09-14T15:45:08;22.20;99.90
324;DHT22;149;51.094;17.002;2022-09-14T15:47:35;22.20;99.90
324;DHT22;149;51.094;17.002;2022-09-14T15:50:03;22.10;99.90
324;DHT22;149;51.094;17.002;2022-09-14T15:52:34;22.00;99.90
324;DHT22;149;51.094;17.002;2022-09-14T15:55:02;21.90;99.90
324;DHT22;149;51.094;17.002;2022-09-14T15:57:29;21.70;99.90
324;DHT22;149;51.094;17.002;2022-09-14T15:59:56;21.80;99.90
324;DHT22;149;51.094;17.002;2022-09-14T16:02:23;21.80;99.90
324;DHT22;149;51.094;17.002;2022-09-14T16:04:50;22.00;99.90
324;DHT22;149;51.094;17.002;2022-09-14T16:07:17;22.00;99.90
324;DHT22;149;51.094;17.002;2022-09-14T16:09:44;22.00;99.90
324;DHT22;149;51.094;17.002;2022-09-14T16:12:12;21.80;99.90
324;DHT22;149;51.094;17.002;2022-09-14T16:14:38;21.70;99.90
324;DHT22;149;51.094;17.002;2022-09-14T16:17:06;21.50;99.90
324;DHT22;149;51.094;17.002;2022-09-14T16:19:34;21.40;99.90
324;DHT22;149;51.094;17.002;2022-09-14T16:22:01;21.20;99.90
324;DHT22;149;51.094;17.002;2022-09-14T16:24:29;21.00;99.90
324;DHT22;149;51.094;17.002;2022-09-14T16:26:56;20.90;99.90
324;DHT22;149;51.094;17.002;2022-09-14T16:29:25;21.00;99.90
324;DHT22;149;51.094;17.002;2022-09-14T16:31:52;21.00;99.90
324;DHT22;149;51.094;17.002;2022-09-14T16:34:23;20.90;99.90
324;DHT22;149;51.094;17.002;2022-09-14T16:36:50;20.70;99.90
324;DHT22;149;51.094;17.002;2022-09-14T16:39:20;20.60;99.90
324;DHT22;149;51.094;17.002;2022-09-14T16:41:49;20.60;99.90
324;DHT22;149;51.094;17.002;2022-09-14T16:44:18;20.60;99.90
324;DHT22;149;51.094;17.002;2022-09-14T16:46:45;20.50;99.90
324;DHT22;149;51.094;17.002;2022-09-14T16:49:15;20.40;99.90
324;DHT22;149;51.094;17.002;2022-09-14T16:51:42;20.40;99.90
324;DHT22;149;51.094;17.002;2022-09-14T16:54:14;20.40;99.90
324;DHT22;149;51.094;17.002;2022-09-14T16:56:42;20.30;99.90
324;DHT22;149;51.094;17.002;2022-09-14T16:59:10;20.30;99.90
324;DHT22;149;51.094;17.002;2022-09-14T17:01:40;20.20;99.90
324;DHT22;149;51.094;17.002;2022-09-14T17:04:12;20.20;99.90
324;DHT22;149;51.094;17.002;2022-09-14T17:06:43;20.20;99.90
324;DHT22;149;51.094;17.002;2022-09-14T17:09:20;20.20;99.90
324;DHT22;149;51.094;17.002;2022-09-14T17:11:47;20.20;99.90
324;DHT22;149;51.094;17.002;2022-09-14T17:14:16;20.20;99.90
324;DHT22;149;51.094;17.002;2022-09-14T17:16:43;20.20;99.90
324;DHT22;149;51.094;17.002;2022-09-14T17:19:11;20.20;99.90
324;DHT22;149;51.094;17.002;2022-09-14T17:21:41;20.10;99.90
324;DHT22;149;51.094;17.002;2022-09-14T17:24:08;20.10;99.90
324;DHT22;149;51.094;17.002;2022-09-14T17:26:35;20.10;99.90
324;DHT22;149;51.094;17.002;2022-09-14T17:29:04;20.00;99.90
324;DHT22;149;51.094;17.002;2022-09-14T17:31:34;20.00;99.90
324;DHT22;149;51.094;17.002;2022-09-14T17:34:03;20.00;99.90
324;DHT22;149;51.094;17.002;2022-09-14T17:36:31;19.90;99.90
324;DHT22;149;51.094;17.002;2022-09-14T17:38:59;19.90;99.90
324;DHT22;149;51.094;17.002;2022-09-14T17:41:29;19.90;99.90
324;DHT22;149;51.094;17.002;2022-09-14T17:44:02;19.90;99.90
324;DHT22;149;51.094;17.002;2022-09-14T17:46:30;20.00;99.90
324;DHT22;149;51.094;17.002;2022-09-14T17:48:59;19.80;99.90
324;DHT22;149;51.094;17.002;2022-09-14T17:51:27;19.80;99.90
324;DHT22;149;51.094;17.002;2022-09-14T17:53:56;19.80;99.90
324;DHT22;149;51.094;17.002;2022-09-14T17:56:25;19.70;99.90
324;DHT22;149;51.094;17.002;2022-09-14T17:59:10;19.80;99.90
324;DHT22;149;51.094;17.002;2022-09-14T18:01:38;19.90;99.90
324;DHT22;149;51.094;17.002;2022-09-14T18:04:09;20.10;99.90
324;DHT22;149;51.094;17.002;2022-09-14T18:06:39;20.00;99.90
324;DHT22;149;51.094;17.002;2022-09-14T18:09:14;20.00;99.90
324;DHT22;149;51.094;17.002;2022-09-14T18:11:42;20.00;99.90
324;DHT22;149;51.094;17.002;2022-09-14T18:14:12;20.00;99.90
324;DHT22;149;51.094;17.002;2022-09-14T18:16:40;20.10;99.90
324;DHT22;149;51.094;17.002;2022-09-14T18:19:08;19.90;99.90
324;DHT22;149;51.094;17.002;2022-09-14T18:21:35;19.90;99.90
324;DHT22;149;51.094;17.002;2022-09-14T18:24:02;19.90;99.90
324;DHT22;149;51.094;17.002;2022-09-14T18:26:29;19.90;99.90
324;DHT22;149;51.094;17.002;2022-09-14T18:28:56;19.70;99.90
324;DHT22;149;51.094;17.002;2022-09-14T18:31:24;19.80;99.90
324;DHT22;149;51.094;17.002;2022-09-14T18:33:54;19.90;99.90
324;DHT22;149;51.094;17.002;2022-09-14T18:36:24;19.90;99.90
324;DHT22;149;51.094;17.002;2022-09-14T18:38:55;20.00;99.90